Benllech, United Kingdom
Current Conditions -  °F | °C
As of 9:50 AM on Friday 24 Oct 2014 (Local Time) from EGOV Reporting Station
Few Clouds Few Clouds  
Wind Chill: 55°   Ceiling: Unl
Heat Index: 55°   Visibility: 6mi
Dew Point: 46°   Wind: 12mph
Humidity: 72%   Direction: 230°SW
Pressure: 29.88"   Gusts: NA
Location:  53.32°N, 4.23°W
Report Text: EGOV 240850Z 23010KT 9999 FEW022 13/08 Q1012 BLU NOSIG
Loading
Personal Weather Stations






























Interactive Weather Map
Tropical Storm Tracking
New forecast layout! Learn more

10-Day Weather Forecast

Advertisements
Track Severe Weather on mobile